createdAt,value
2023-01-17T00:03:00.507Z,14.52
2023-01-17T00:08:23.754Z,14.86
2023-01-17T00:13:29.419Z,14.86
2023-01-17T00:18:39.610Z,14.92
2023-01-17T00:23:56.872Z,15.85
2023-01-17T00:28:59.130Z,16.72
2023-01-17T00:34:05.006Z,17.83
2023-01-17T00:39:09.753Z,19.14
2023-01-17T00:44:30.686Z,20.01
2023-01-17T00:49:52.687Z,20.68
2023-01-17T00:55:13.371Z,20.66
2023-01-17T01:00:34.676Z,20.78
2023-01-17T01:05:57.239Z,20.92
2023-01-17T01:11:18.120Z,21.75
2023-01-17T01:16:39.141Z,22.94
2023-01-17T01:22:01.219Z,23.32
2023-01-17T01:27:22.230Z,23.50
2023-01-17T01:32:45.060Z,23.87
2023-01-17T01:37:49.937Z,23.65
2023-01-17T01:42:54.547Z,23.13
2023-01-17T01:48:01.063Z,24.08
2023-01-17T01:53:08.216Z,22.15
2023-01-17T01:58:16.219Z,22.48
2023-01-17T02:03:23.482Z,21.71
2023-01-17T02:08:28.241Z,21.26
2023-01-17T02:13:34.719Z,21.00
2023-01-17T02:18:50.754Z,20.80
2023-01-17T02:24:16.953Z,22.18
2023-01-17T02:29:48.774Z,20.58
2023-01-17T02:34:59.743Z,20.72
2023-01-17T02:40:09.017Z,20.38
2023-01-17T02:45:16.190Z,19.74
2023-01-17T02:50:23.851Z,21.37
2023-01-17T02:55:38.337Z,21.86
2023-01-17T03:00:52.003Z,20.93
2023-01-17T03:06:01.943Z,20.59
2023-01-17T03:11:08.337Z,22.03
2023-01-17T03:16:18.668Z,20.74
2023-01-17T03:21:25.553Z,19.43
2023-01-17T03:26:28.977Z,20.72
2023-01-17T03:31:32.347Z,27.95
2023-01-17T03:36:39.482Z,19.48
2023-01-17T03:41:42.880Z,21.79
2023-01-17T03:46:46.350Z,31.95
2023-01-17T03:51:51.106Z,18.73
2023-01-17T03:56:54.465Z,18.51
2023-01-17T04:02:00.097Z,20.43
2023-01-17T04:07:07.359Z,28.57
2023-01-17T04:12:15.866Z,29.08
2023-01-17T04:17:20.888Z,17.54
2023-01-17T04:22:25.711Z,21.52
2023-01-17T04:27:29.081Z,20.08
2023-01-17T04:32:32.431Z,19.03
2023-01-17T04:37:37.241Z,18.01
2023-01-17T04:42:40.593Z,16.68
2023-01-17T04:47:44.204Z,16.24
2023-01-17T04:52:48.999Z,17.92
2023-01-17T04:57:57.439Z,16.12
2023-01-17T05:03:03.598Z,16.67
2023-01-17T05:08:09.641Z,20.04
2023-01-17T05:13:14.309Z,35.24
2023-01-17T05:18:19.369Z,49.91
2023-01-17T05:23:25.444Z,22.80
2023-01-17T05:28:28.935Z,21.57
2023-01-17T05:33:32.317Z,20.84
2023-01-17T05:38:37.268Z,21.91
2023-01-17T05:43:40.657Z,23.22
2023-01-17T05:48:44.426Z,27.89
2023-01-17T05:53:49.248Z,28.26
2023-01-17T05:58:54.905Z,25.70
2023-01-17T06:03:58.345Z,23.26
2023-01-17T06:09:05.505Z,24.64
2023-01-17T06:14:11.448Z,26.99
2023-01-17T06:19:14.877Z,27.44
2023-01-17T06:24:22.201Z,24.73
2023-01-17T06:29:25.972Z,25.33
2023-01-17T06:34:29.455Z,24.49
2023-01-17T06:39:36.849Z,28.57
2023-01-17T06:44:42.549Z,26.34
2023-01-17T06:49:45.907Z,25.71
2023-01-17T06:54:54.295Z,45.42
2023-01-17T07:00:02.591Z,38.87
2023-01-17T07:05:06.287Z,31.08
2023-01-17T07:10:11.737Z,26.35
2023-01-17T07:15:21.606Z,35.78
2023-01-17T07:20:27.590Z,26.37
2023-01-17T07:25:32.409Z,26.96
2023-01-17T07:30:36.738Z,25.59
2023-01-17T07:35:41.391Z,25.53
2023-01-17T07:40:48.644Z,34.35
2023-01-17T07:45:52.130Z,24.73
2023-01-17T07:50:58.778Z,34.02
2023-01-17T07:56:04.408Z,43.18
2023-01-17T08:01:13.138Z,26.13
2023-01-17T08:06:18.430Z,24.18
2023-01-17T08:11:25.413Z,25.07
2023-01-17T08:16:29.865Z,25.47
2023-01-17T08:21:36.029Z,25.08
2023-01-17T08:26:42.924Z,27.84
2023-01-17T08:31:46.329Z,24.15
2023-01-17T08:36:53.933Z,25.89
2023-01-17T08:41:58.839Z,22.38
2023-01-17T08:47:02.407Z,26.53
2023-01-17T08:52:08.191Z,21.24
2023-01-17T08:57:12.950Z,21.40
2023-01-17T09:02:21.389Z,23.60
2023-01-17T09:07:27.594Z,25.55
2023-01-17T09:12:36.843Z,21.40
2023-01-17T09:17:44.673Z,25.03
2023-01-17T09:22:50.588Z,31.93
2023-01-17T09:27:55.310Z,25.53
2023-01-17T09:33:03.339Z,35.44
2023-01-17T09:38:07.017Z,27.81
2023-01-17T09:43:23.243Z,14.76
2023-01-17T09:48:34.217Z,13.96
2023-01-17T09:53:43.991Z,16.67
2023-01-17T09:58:58.187Z,15.12
2023-01-17T10:04:11.140Z,16.88
2023-01-17T10:09:35.142Z,21.04
2023-01-17T10:15:03.058Z,23.60
2023-01-17T10:20:21.373Z,21.57
2023-01-17T10:25:33.897Z,22.83
2023-01-17T10:30:40.325Z,21.15
2023-01-17T10:35:54.707Z,33.67
2023-01-17T10:41:01.910Z,34.25
2023-01-17T10:46:16.308Z,22.53
2023-01-17T10:51:34.031Z,22.01
2023-01-17T10:56:40.788Z,21.96
2023-01-17T11:01:47.702Z,21.76
2023-01-17T11:07:11.258Z,23.30
2023-01-17T11:12:20.232Z,21.75
2023-01-17T11:17:23.860Z,22.70
2023-01-17T11:22:34.007Z,21.77
2023-01-17T11:27:39.551Z,23.04
2023-01-17T11:32:52.742Z,25.28
2023-01-17T11:38:04.489Z,26.33
2023-01-17T11:43:21.995Z,25.07
2023-01-17T11:48:25.408Z,24.51
2023-01-17T11:53:33.092Z,24.72
2023-01-17T11:58:42.416Z,24.22
2023-01-17T12:04:04.600Z,23.50
2023-01-17T12:09:23.050Z,23.38
2023-01-17T12:14:36.374Z,30.25
2023-01-17T12:19:54.395Z,24.51
2023-01-17T12:25:08.537Z,20.91
2023-01-17T12:30:22.743Z,19.23
2023-01-17T12:35:31.649Z,19.81
2023-01-17T12:40:44.406Z,22.85
2023-01-17T12:45:54.723Z,28.07
2023-01-17T12:51:06.829Z,25.93
2023-01-17T12:56:17.528Z,33.62
2023-01-17T13:01:25.137Z,25.81
2023-01-17T13:06:33.770Z,21.44
2023-01-17T13:11:46.044Z,20.65
2023-01-17T13:16:57.962Z,22.82
2023-01-17T13:22:07.381Z,20.71
2023-01-17T13:27:29.487Z,21.56
2023-01-17T13:32:49.962Z,27.05
2023-01-17T13:38:13.041Z,21.30
2023-01-17T13:43:20.998Z,24.16
2023-01-17T13:48:32.901Z,25.07
2023-01-17T13:53:59.960Z,23.21
2023-01-17T13:59:20.737Z,21.11
2023-01-17T14:04:43.589Z,23.84
2023-01-17T14:09:51.473Z,23.36
2023-01-17T14:14:57.004Z,32.32
2023-01-17T14:20:21.450Z,24.04
2023-01-17T14:25:29.909Z,22.32
2023-01-17T14:30:37.544Z,23.77
2023-01-17T14:35:42.345Z,23.41
2023-01-17T14:40:54.056Z,22.52
2023-01-17T14:46:03.302Z,23.06
2023-01-17T14:51:13.533Z,23.52
2023-01-17T14:56:20.825Z,23.50
2023-01-17T15:01:24.647Z,22.56
2023-01-17T15:06:36.684Z,44.08
2023-01-17T15:11:46.027Z,25.89
2023-01-17T15:16:52.003Z,25.71
2023-01-17T15:21:55.908Z,23.25
2023-01-17T15:27:03.473Z,24.72
2023-01-17T15:32:09.267Z,24.54
2023-01-17T15:37:24.130Z,27.59
2023-01-17T15:42:32.273Z,30.17
2023-01-17T15:47:39.178Z,32.09
2023-01-17T15:52:49.223Z,31.97
2023-01-17T15:57:54.056Z,31.80
2023-01-17T16:02:59.025Z,33.20
2023-01-17T16:08:25.404Z,57.71
2023-01-17T16:13:34.771Z,39.55
2023-01-17T16:18:38.614Z,33.65
2023-01-17T16:23:42.930Z,33.14
2023-01-17T16:28:47.945Z,32.31
2023-01-17T16:33:51.842Z,46.30
2023-01-17T16:38:55.307Z,34.45
2023-01-17T16:44:01.716Z,34.83
2023-01-17T16:49:07.215Z,41.62
2023-01-17T16:54:12.777Z,35.50
2023-01-17T16:59:17.594Z,33.81
2023-01-17T17:04:21.158Z,35.01
2023-01-17T17:09:26.989Z,37.32
2023-01-17T17:14:33.932Z,39.78
2023-01-17T17:19:37.431Z,50.45
2023-01-17T17:24:40.874Z,41.42
2023-01-17T17:29:50.598Z,43.14
2023-01-17T17:34:54.076Z,41.79
2023-01-17T17:40:03.616Z,60.15
2023-01-17T17:45:11.141Z,46.64
2023-01-17T17:50:14.611Z,39.40
2023-01-17T17:55:19.083Z,42.52
2023-01-17T18:00:24.121Z,40.89
2023-01-17T18:05:27.571Z,42.74
2023-01-17T18:10:31.005Z,44.79
2023-01-17T18:15:35.815Z,46.29
2023-01-17T18:20:39.915Z,56.07
2023-01-17T18:25:48.579Z,62.33
2023-01-17T18:30:53.427Z,62.09
2023-01-17T18:36:00.286Z,73.32
2023-01-17T18:41:06.856Z,65.51
2023-01-17T18:46:17.494Z,67.84
2023-01-17T18:51:21.896Z,70.27
2023-01-17T18:56:25.308Z,70.96
2023-01-17T19:01:33.630Z,69.50
2023-01-17T19:06:41.978Z,69.66
2023-01-17T19:11:47.644Z,84.09
2023-01-17T19:16:52.480Z,74.09
2023-01-17T19:21:55.909Z,74.29
2023-01-17T19:27:02.747Z,74.36
2023-01-17T19:32:09.792Z,75.07
2023-01-17T19:37:15.757Z,78.10
2023-01-17T19:42:20.376Z,86.96
2023-01-17T19:47:31.740Z,86.57
2023-01-17T19:52:35.643Z,95.18
2023-01-17T19:57:40.646Z,79.49
2023-01-17T20:02:45.532Z,79.66
2023-01-17T20:07:52.529Z,79.47
2023-01-17T20:12:55.984Z,77.58
2023-01-17T20:18:04.515Z,76.98
2023-01-17T20:23:07.947Z,73.48
2023-01-17T20:28:11.404Z,68.83
2023-01-17T20:33:16.168Z,69.52
2023-01-17T20:38:19.542Z,69.91
2023-01-17T20:43:22.984Z,68.96
2023-01-17T20:48:30.869Z,66.17
2023-01-17T20:53:34.780Z,68.34
2023-01-17T20:58:39.436Z,72.76
2023-01-17T21:03:48.002Z,71.75
2023-01-17T21:08:53.359Z,84.34
2023-01-17T21:13:58.931Z,84.41
2023-01-17T21:19:04.400Z,90.84
2023-01-17T21:24:08.031Z,86.85
2023-01-17T21:29:12.300Z,84.15
2023-01-17T21:34:17.081Z,80.25
2023-01-17T21:39:37.388Z,76.57
2023-01-17T21:44:43.685Z,94.67
2023-01-17T21:49:48.517Z,77.06
2023-01-17T21:55:09.642Z,73.16
2023-01-17T22:00:15.474Z,72.19
2023-01-17T22:05:20.679Z,77.42
2023-01-17T22:10:24.126Z,85.09
2023-01-17T22:15:29.827Z,105.80
2023-01-17T22:20:35.159Z,102.07
2023-01-17T22:25:38.542Z,87.12
2023-01-17T22:30:42.152Z,79.59
2023-01-17T22:35:49.149Z,79.12
2023-01-17T22:40:55.341Z,73.01
2023-01-17T22:45:59.772Z,71.27
2023-01-17T22:51:08.726Z,73.24
2023-01-17T22:56:13.604Z,90.99
2023-01-17T23:01:20.817Z,93.99
2023-01-17T23:06:27.371Z,84.68
2023-01-17T23:11:42.659Z,83.18
2023-01-17T23:17:08.490Z,85.17
2023-01-17T23:22:19.096Z,85.13
2023-01-17T23:27:41.399Z,82.45
2023-01-17T23:32:46.834Z,80.25
2023-01-17T23:38:09.156Z,98.73
2023-01-17T23:43:28.695Z,82.79
2023-01-17T23:48:32.615Z,74.27
2023-01-17T23:53:41.002Z,67.00
2023-01-17T23:58:47.384Z,65.47
